createdAt,value
2019-06-26T00:01:51.694Z,17.30
2019-06-26T00:04:18.037Z,17.30
2019-06-26T00:06:44.386Z,17.30
2019-06-26T00:09:10.790Z,17.20
2019-06-26T00:11:37.434Z,17.20
2019-06-26T00:14:03.799Z,17.20
2019-06-26T00:16:30.174Z,17.20
2019-06-26T00:18:56.668Z,17.20
2019-06-26T00:21:23.129Z,17.10
2019-06-26T00:23:49.519Z,17.10
2019-06-26T00:26:15.960Z,17.10
2019-06-26T00:28:42.437Z,17.10
2019-06-26T00:31:08.845Z,17.00
2019-06-26T00:33:35.184Z,17.00
2019-06-26T00:36:01.741Z,16.90
2019-06-26T00:38:28.132Z,16.90
2019-06-26T00:40:54.531Z,16.90
2019-06-26T00:43:20.914Z,16.90
2019-06-26T00:45:47.257Z,16.90
2019-06-26T00:48:13.646Z,16.80
2019-06-26T00:50:40.056Z,16.80
2019-06-26T00:53:06.401Z,16.80
2019-06-26T00:55:32.746Z,16.80
2019-06-26T00:57:59.133Z,16.70
2019-06-26T01:00:32.383Z,16.80
2019-06-26T01:02:58.796Z,16.80
2019-06-26T01:05:25.474Z,16.70
2019-06-26T01:07:51.822Z,16.80
2019-06-26T01:10:19.904Z,16.80
2019-06-26T01:12:46.273Z,16.70
2019-06-26T01:15:12.711Z,16.70
2019-06-26T01:17:39.125Z,16.70
2019-06-26T01:20:06.061Z,16.70
2019-06-26T01:22:32.496Z,16.60
2019-06-26T01:24:59.050Z,16.60
2019-06-26T01:27:25.393Z,16.60
2019-06-26T01:29:51.787Z,16.70
2019-06-26T01:32:18.241Z,16.70
2019-06-26T01:34:44.580Z,16.70
2019-06-26T01:37:10.977Z,16.70
2019-06-26T01:39:37.320Z,16.70
2019-06-26T01:42:03.694Z,16.70
2019-06-26T01:44:30.064Z,16.60
2019-06-26T01:46:56.410Z,16.60
2019-06-26T01:49:22.810Z,16.60
2019-06-26T01:51:49.157Z,16.60
2019-06-26T01:54:15.505Z,16.60
2019-06-26T01:56:42.034Z,16.60
2019-06-26T01:59:08.381Z,16.50
2019-06-26T02:01:34.722Z,16.50
2019-06-26T02:04:01.133Z,16.50
2019-06-26T02:06:27.479Z,16.50
2019-06-26T02:08:53.830Z,16.50
2019-06-26T02:11:20.209Z,16.50
2019-06-26T02:13:46.618Z,16.50
2019-06-26T02:16:12.955Z,16.50
2019-06-26T02:18:43.967Z,16.40
2019-06-26T02:21:10.354Z,16.40
2019-06-26T02:23:36.748Z,16.40
2019-06-26T02:26:03.113Z,16.40
2019-06-26T02:28:29.460Z,16.40
2019-06-26T02:30:55.850Z,16.40
2019-06-26T02:33:22.211Z,16.30
2019-06-26T02:35:48.596Z,16.30
2019-06-26T02:38:15.039Z,16.30
2019-06-26T02:40:41.390Z,16.40
2019-06-26T02:43:08.095Z,16.40
2019-06-26T02:45:34.588Z,16.40
2019-06-26T02:48:01.033Z,16.40
2019-06-26T02:50:27.540Z,16.40
2019-06-26T02:52:53.882Z,16.40
2019-06-26T02:55:20.272Z,16.40
2019-06-26T02:57:46.674Z,16.40
2019-06-26T03:00:13.796Z,16.40
2019-06-26T03:02:41.183Z,16.40
2019-06-26T03:05:07.570Z,16.30
2019-06-26T03:07:33.967Z,16.30
2019-06-26T03:10:00.365Z,16.30
2019-06-26T03:12:26.743Z,16.40
2019-06-26T03:15:07.858Z,16.30
2019-06-26T03:17:21.389Z,16.30
2019-06-26T03:19:47.723Z,16.30
2019-06-26T03:22:14.126Z,16.40
2019-06-26T03:24:40.573Z,16.40
2019-06-26T03:27:09.020Z,16.40
2019-06-26T03:29:35.097Z,16.50
2019-06-26T03:32:01.438Z,16.50
2019-06-26T03:34:27.980Z,16.50
2019-06-26T03:36:54.461Z,16.50
2019-06-26T03:39:20.901Z,16.50
2019-06-26T03:41:47.298Z,16.50
2019-06-26T03:44:13.722Z,16.50
2019-06-26T03:46:40.119Z,16.60
2019-06-26T03:49:06.507Z,16.60
2019-06-26T03:51:32.890Z,16.50
2019-06-26T03:53:59.318Z,16.50
2019-06-26T03:56:25.766Z,16.50
2019-06-26T03:58:52.110Z,16.50
2019-06-26T04:01:18.558Z,16.40
2019-06-26T04:03:44.943Z,16.50
2019-06-26T04:06:11.281Z,16.50
2019-06-26T04:08:37.829Z,16.40
2019-06-26T04:11:04.273Z,16.40
2019-06-26T04:13:30.721Z,16.30
2019-06-26T04:15:57.112Z,16.30
2019-06-26T04:18:23.460Z,16.30
2019-06-26T04:20:49.804Z,16.40
2019-06-26T04:23:16.193Z,16.40
2019-06-26T04:25:42.590Z,16.50
2019-06-26T04:28:08.973Z,16.50
2019-06-26T04:30:35.386Z,16.50
2019-06-26T04:33:01.959Z,16.50
2019-06-26T04:35:28.280Z,16.40
2019-06-26T04:37:54.672Z,16.40
2019-06-26T04:40:21.018Z,16.50
2019-06-26T04:42:47.356Z,16.50
2019-06-26T04:45:13.854Z,16.50
2019-06-26T04:47:40.276Z,16.50
2019-06-26T04:50:07.811Z,16.50
2019-06-26T04:52:34.212Z,16.60
2019-06-26T04:55:00.593Z,16.60
2019-06-26T04:57:26.936Z,16.60
2019-06-26T04:59:53.276Z,16.60
2019-06-26T05:02:19.665Z,16.60
2019-06-26T05:04:46.273Z,16.60
2019-06-26T05:07:12.632Z,16.60
2019-06-26T05:09:39.080Z,16.70
2019-06-26T05:12:05.476Z,16.70
2019-06-26T05:14:31.920Z,16.70
2019-06-26T05:16:58.333Z,16.70
2019-06-26T05:19:24.789Z,16.70
2019-06-26T05:21:51.231Z,16.80
2019-06-26T05:24:17.629Z,16.80
2019-06-26T05:26:44.064Z,16.80
2019-06-26T05:29:10.497Z,16.80
2019-06-26T05:31:36.901Z,16.90
2019-06-26T05:34:03.245Z,16.90
2019-06-26T05:36:29.767Z,16.80
2019-06-26T05:38:56.155Z,16.90
2019-06-26T05:41:22.502Z,16.90
2019-06-26T05:43:48.884Z,16.80
2019-06-26T05:46:30.172Z,16.80
2019-06-26T05:48:43.476Z,16.80
2019-06-26T05:51:09.862Z,16.80
2019-06-26T05:53:36.282Z,16.90
2019-06-26T05:56:02.861Z,16.90
2019-06-26T05:58:29.307Z,16.90
2019-06-26T06:00:55.713Z,16.90
2019-06-26T06:03:22.060Z,16.90
2019-06-26T06:05:48.403Z,17.00
2019-06-26T06:08:15.127Z,17.00
2019-06-26T06:10:41.920Z,17.00
2019-06-26T06:13:08.264Z,17.00
2019-06-26T06:15:35.037Z,17.00
2019-06-26T06:18:01.376Z,17.10
2019-06-26T06:20:36.750Z,17.10
2019-06-26T06:23:03.107Z,17.10
2019-06-26T06:25:29.555Z,17.10
2019-06-26T06:27:55.948Z,17.10
2019-06-26T06:30:22.293Z,17.20
2019-06-26T06:32:48.648Z,17.20
2019-06-26T06:35:15.032Z,17.30
2019-06-26T06:37:41.436Z,17.30
2019-06-26T06:40:08.404Z,17.40
2019-06-26T06:42:34.856Z,17.30
2019-06-26T06:45:01.316Z,17.30
2019-06-26T06:47:27.742Z,17.20
2019-06-26T06:49:54.053Z,17.30
2019-06-26T06:52:20.439Z,17.30
2019-06-26T06:54:46.817Z,17.30
2019-06-26T06:57:13.304Z,17.30
2019-06-26T06:59:39.777Z,17.30
2019-06-26T07:02:06.093Z,17.40
2019-06-26T07:04:32.497Z,17.40
2019-06-26T07:06:58.920Z,17.50
2019-06-26T07:09:25.282Z,17.60
2019-06-26T07:11:51.771Z,17.60
2019-06-26T07:14:18.113Z,17.60
2019-06-26T07:16:44.502Z,17.70
2019-06-26T07:19:10.842Z,17.60
2019-06-26T07:21:37.183Z,17.60
2019-06-26T07:24:03.577Z,17.70
2019-06-26T07:26:30.028Z,17.70
2019-06-26T07:28:56.412Z,17.80
2019-06-26T07:31:22.753Z,17.90
2019-06-26T07:33:49.280Z,17.80
2019-06-26T07:36:15.661Z,17.90
2019-06-26T07:38:42.172Z,17.90
2019-06-26T07:41:08.526Z,17.90
2019-06-26T07:43:34.870Z,18.00
2019-06-26T07:46:01.260Z,18.00
2019-06-26T07:48:27.689Z,18.20
2019-06-26T07:50:54.024Z,18.20
2019-06-26T07:53:20.434Z,18.20
2019-06-26T07:55:46.976Z,18.10
2019-06-26T07:58:13.425Z,18.00
2019-06-26T08:00:39.809Z,17.90
2019-06-26T08:03:06.152Z,18.00
2019-06-26T08:05:32.502Z,18.10
2019-06-26T08:07:58.901Z,18.10
2019-06-26T08:10:25.269Z,18.00
2019-06-26T08:12:52.008Z,18.00
2019-06-26T08:15:18.540Z,18.00
2019-06-26T08:17:59.079Z,18.10
2019-06-26T08:20:13.273Z,18.10
2019-06-26T08:22:39.689Z,18.00
2019-06-26T08:25:06.136Z,17.90
2019-06-26T08:27:32.484Z,17.80
2019-06-26T08:29:58.996Z,17.70
2019-06-26T08:32:26.126Z,17.60
2019-06-26T08:34:52.691Z,17.60
2019-06-26T08:37:19.073Z,17.70
2019-06-26T08:39:45.423Z,17.60
2019-06-26T08:42:11.898Z,17.70
2019-06-26T08:44:38.213Z,17.70
2019-06-26T08:47:04.584Z,17.70
2019-06-26T08:49:31.033Z,17.70
2019-06-26T08:51:57.367Z,17.90
2019-06-26T08:54:23.713Z,17.90
2019-06-26T08:56:50.093Z,17.90
2019-06-26T08:59:16.434Z,18.00
2019-06-26T09:01:42.840Z,17.90
2019-06-26T09:04:09.609Z,17.80
2019-06-26T09:06:35.977Z,17.90
2019-06-26T09:09:03.189Z,17.90
2019-06-26T09:11:30.684Z,17.90
2019-06-26T09:13:57.092Z,17.90
2019-06-26T09:16:23.438Z,17.90
2019-06-26T09:18:49.776Z,17.90
2019-06-26T09:21:16.181Z,17.90
2019-06-26T09:23:42.620Z,18.00
2019-06-26T09:26:08.965Z,17.90
2019-06-26T09:28:35.360Z,17.90
2019-06-26T09:31:01.759Z,17.80
2019-06-26T09:33:32.011Z,17.60
2019-06-26T09:35:56.296Z,17.70
2019-06-26T09:38:22.637Z,17.80
2019-06-26T09:40:49.125Z,17.80
2019-06-26T09:43:15.601Z,17.80
2019-06-26T09:45:41.984Z,17.80
2019-06-26T09:48:08.474Z,17.80
2019-06-26T09:50:34.871Z,17.90
2019-06-26T09:53:04.982Z,17.90
2019-06-26T09:55:29.424Z,17.90
2019-06-26T09:57:55.863Z,18.00
2019-06-26T10:00:23.517Z,18.00
2019-06-26T10:02:49.950Z,17.90
2019-06-26T10:05:16.281Z,17.90
2019-06-26T10:07:42.676Z,17.90
2019-06-26T10:10:09.009Z,17.90
2019-06-26T10:12:35.425Z,17.90
2019-06-26T10:15:02.380Z,17.90
2019-06-26T10:17:28.846Z,17.90
2019-06-26T10:19:55.198Z,17.90
2019-06-26T10:22:21.807Z,17.90
2019-06-26T10:24:48.328Z,17.90
2019-06-26T10:27:14.779Z,18.00
2019-06-26T10:29:41.261Z,18.10
2019-06-26T10:32:07.689Z,18.30
2019-06-26T10:34:34.171Z,18.10
2019-06-26T10:37:00.538Z,18.10
2019-06-26T10:39:26.987Z,18.10
2019-06-26T10:41:55.032Z,18.20
2019-06-26T10:44:21.621Z,18.10
2019-06-26T10:46:48.031Z,18.00
2019-06-26T10:49:26.553Z,18.00
2019-06-26T10:51:42.593Z,18.10
2019-06-26T10:54:09.121Z,18.10
2019-06-26T10:56:35.802Z,18.20
2019-06-26T10:59:02.148Z,18.20
2019-06-26T11:01:28.634Z,18.20
2019-06-26T11:03:55.178Z,18.10
2019-06-26T11:06:21.552Z,18.10
2019-06-26T11:08:47.884Z,18.10
2019-06-26T11:11:14.321Z,18.10
2019-06-26T11:13:40.833Z,18.10
2019-06-26T11:16:07.185Z,18.20
2019-06-26T11:18:33.531Z,18.20
2019-06-26T11:21:00.002Z,18.10
2019-06-26T11:23:26.486Z,18.10
2019-06-26T11:25:52.836Z,18.10
2019-06-26T11:28:19.189Z,18.10
2019-06-26T11:30:45.597Z,18.00
2019-06-26T11:33:12.114Z,17.90
2019-06-26T11:35:38.453Z,18.00
2019-06-26T11:38:05.078Z,18.10
2019-06-26T11:40:31.535Z,18.10
2019-06-26T11:42:58.088Z,18.30
2019-06-26T11:45:24.457Z,18.20
2019-06-26T11:47:50.944Z,18.10
2019-06-26T11:50:17.344Z,18.20
2019-06-26T11:52:43.745Z,18.20
2019-06-26T11:55:10.457Z,18.20
2019-06-26T11:57:37.093Z,18.30
2019-06-26T12:00:11.245Z,18.30
2019-06-26T12:02:37.763Z,18.50
2019-06-26T12:05:05.200Z,18.30
2019-06-26T12:07:31.601Z,18.40
2019-06-26T12:09:58.145Z,18.50
2019-06-26T12:12:24.733Z,18.40
2019-06-26T12:14:51.142Z,18.50
2019-06-26T12:17:17.497Z,18.70
2019-06-26T12:19:43.958Z,18.70
2019-06-26T12:22:10.440Z,18.60
2019-06-26T12:24:36.773Z,18.60
2019-06-26T12:27:03.130Z,18.50
2019-06-26T12:29:32.771Z,18.50
2019-06-26T12:31:57.646Z,18.50
2019-06-26T12:34:24.141Z,18.40
2019-06-26T12:36:50.487Z,18.50
2019-06-26T12:39:16.875Z,18.50
2019-06-26T12:41:43.228Z,18.60
2019-06-26T12:44:09.758Z,18.60
2019-06-26T12:46:36.168Z,18.60
2019-06-26T12:49:02.573Z,18.40
2019-06-26T12:51:29.101Z,18.50
2019-06-26T12:53:58.398Z,18.60
2019-06-26T12:56:23.640Z,18.80
2019-06-26T12:58:50.027Z,18.70
2019-06-26T13:01:16.368Z,18.60
2019-06-26T13:03:42.815Z,18.80
2019-06-26T13:06:09.310Z,18.80
2019-06-26T13:08:35.753Z,18.80
2019-06-26T13:11:02.320Z,18.80
2019-06-26T13:13:28.751Z,18.80
2019-06-26T13:15:55.165Z,18.80
2019-06-26T13:18:21.563Z,18.70
2019-06-26T13:20:52.805Z,18.70
2019-06-26T13:23:16.148Z,18.60
2019-06-26T13:25:42.743Z,18.60
2019-06-26T13:28:09.144Z,18.70
2019-06-26T13:30:37.175Z,18.70
2019-06-26T13:33:03.527Z,18.70
2019-06-26T13:35:29.930Z,18.70
2019-06-26T13:37:56.280Z,18.80
2019-06-26T13:40:22.620Z,18.70
2019-06-26T13:42:49.050Z,18.90
2019-06-26T13:45:15.467Z,19.10
2019-06-26T13:47:41.881Z,19.40
2019-06-26T13:50:08.836Z,19.60
2019-06-26T13:52:35.180Z,19.90
2019-06-26T13:55:01.525Z,19.80
2019-06-26T13:57:28.133Z,20.00
2019-06-26T13:59:54.487Z,19.80
2019-06-26T14:02:20.841Z,19.70
2019-06-26T14:04:47.690Z,19.50
2019-06-26T14:07:14.180Z,19.30
2019-06-26T14:09:40.628Z,19.50
2019-06-26T14:12:07.005Z,19.40
2019-06-26T14:14:46.166Z,19.50
2019-06-26T14:17:01.705Z,19.50
2019-06-26T14:19:28.025Z,19.50
2019-06-26T14:21:54.410Z,19.40
2019-06-26T14:24:20.758Z,19.40
2019-06-26T14:26:47.089Z,19.40
2019-06-26T14:29:20.821Z,19.50
2019-06-26T14:31:41.734Z,19.50
2019-06-26T14:34:08.181Z,19.80
2019-06-26T14:36:34.669Z,20.00
2019-06-26T14:39:01.008Z,20.00
2019-06-26T14:41:27.392Z,19.80
2019-06-26T14:43:53.756Z,19.90
2019-06-26T14:46:20.093Z,19.90
2019-06-26T14:48:46.608Z,20.00
2019-06-26T14:51:13.134Z,20.20
2019-06-26T14:53:39.583Z,20.10
2019-06-26T14:56:05.980Z,20.00
2019-06-26T14:58:32.324Z,19.60
2019-06-26T15:00:58.821Z,19.40
2019-06-26T15:03:25.265Z,19.60
2019-06-26T15:05:51.672Z,19.60
2019-06-26T15:08:18.027Z,19.80
2019-06-26T15:10:44.386Z,20.00
2019-06-26T15:13:10.789Z,19.70
2019-06-26T15:15:37.254Z,19.50
2019-06-26T15:18:03.708Z,19.70
2019-06-26T15:20:30.213Z,19.60
2019-06-26T15:22:58.746Z,19.50
2019-06-26T15:25:25.668Z,19.50
2019-06-26T15:27:52.130Z,19.80
2019-06-26T15:30:19.009Z,19.70
2019-06-26T15:32:45.842Z,19.60
2019-06-26T15:35:12.420Z,19.40
2019-06-26T15:37:38.782Z,19.40
2019-06-26T15:40:05.193Z,19.20
2019-06-26T15:42:31.601Z,19.40
2019-06-26T15:44:57.950Z,19.60
2019-06-26T15:47:24.345Z,19.50
2019-06-26T15:49:50.893Z,19.30
2019-06-26T15:52:17.296Z,19.20
2019-06-26T15:54:43.671Z,19.20
2019-06-26T15:57:10.124Z,19.40
2019-06-26T15:59:36.617Z,19.40
2019-06-26T16:02:02.965Z,19.30
2019-06-26T16:04:29.436Z,19.30
2019-06-26T16:06:55.818Z,19.40
2019-06-26T16:09:22.306Z,19.50
2019-06-26T16:11:48.829Z,19.30
2019-06-26T16:14:15.169Z,19.20
2019-06-26T16:16:43.513Z,19.30
2019-06-26T16:19:17.820Z,19.40
2019-06-26T16:21:44.242Z,19.20
2019-06-26T16:24:12.673Z,19.00
2019-06-26T16:26:39.054Z,19.20
2019-06-26T16:29:05.502Z,19.40
2019-06-26T16:31:31.845Z,19.50
2019-06-26T16:33:58.208Z,19.40
2019-06-26T16:36:24.638Z,19.40
2019-06-26T16:38:50.977Z,19.70
2019-06-26T16:41:17.330Z,19.80
2019-06-26T16:43:43.740Z,19.80
2019-06-26T16:46:10.174Z,19.50
2019-06-26T16:48:36.573Z,19.40
2019-06-26T16:51:04.273Z,19.60
2019-06-26T16:53:35.340Z,19.70
2019-06-26T16:56:00.246Z,19.70
2019-06-26T16:58:26.678Z,19.80
2019-06-26T17:00:53.161Z,19.90
2019-06-26T17:03:19.578Z,20.20
2019-06-26T17:05:45.917Z,20.20
2019-06-26T17:08:12.606Z,19.90
2019-06-26T17:10:38.994Z,19.50
2019-06-26T17:13:05.393Z,19.40
2019-06-26T17:15:31.738Z,19.40
2019-06-26T17:17:58.363Z,19.70
2019-06-26T17:20:24.713Z,19.70
2019-06-26T17:23:04.601Z,19.60
2019-06-26T17:25:19.376Z,19.60
2019-06-26T17:27:45.778Z,19.40
2019-06-26T17:30:12.124Z,19.30
2019-06-26T17:32:38.577Z,19.20
2019-06-26T17:35:05.833Z,19.00
2019-06-26T17:37:32.352Z,18.90
2019-06-26T17:39:58.899Z,18.90
2019-06-26T17:42:25.263Z,18.70
2019-06-26T17:44:51.724Z,18.70
2019-06-26T17:47:18.106Z,18.60
2019-06-26T17:49:44.509Z,18.70
2019-06-26T17:52:10.927Z,18.70
2019-06-26T17:54:37.290Z,18.60
2019-06-26T17:57:03.692Z,18.50
2019-06-26T17:59:30.143Z,18.50
2019-06-26T18:01:56.491Z,18.40
2019-06-26T18:04:22.954Z,18.40
2019-06-26T18:06:49.325Z,18.60
2019-06-26T18:09:15.837Z,18.60
2019-06-26T18:11:42.442Z,18.40
2019-06-26T18:14:08.912Z,18.50
2019-06-26T18:16:35.300Z,18.50
2019-06-26T18:19:01.797Z,18.50
2019-06-26T18:21:28.490Z,18.30
2019-06-26T18:23:54.965Z,18.30
2019-06-26T18:26:21.347Z,18.30
2019-06-26T18:28:47.736Z,18.30
2019-06-26T18:31:14.111Z,18.30
2019-06-26T18:33:44.047Z,18.30
2019-06-26T18:36:08.726Z,18.30
2019-06-26T18:38:35.062Z,18.30
2019-06-26T18:41:01.462Z,18.20
2019-06-26T18:43:27.825Z,18.20
2019-06-26T18:45:54.187Z,18.20
2019-06-26T18:48:20.791Z,18.20
2019-06-26T18:50:47.181Z,18.30
2019-06-26T18:53:13.525Z,18.30
2019-06-26T18:55:39.910Z,18.30
2019-06-26T18:58:06.299Z,18.20
2019-06-26T19:00:32.666Z,18.20
2019-06-26T19:02:59.371Z,18.20
2019-06-26T19:05:25.716Z,18.10
2019-06-26T19:07:52.067Z,18.10
2019-06-26T19:10:18.503Z,18.10
2019-06-26T19:12:44.849Z,18.00
2019-06-26T19:15:11.310Z,18.00
2019-06-26T19:17:37.617Z,17.90
2019-06-26T19:20:07.181Z,17.90
2019-06-26T19:22:33.618Z,17.90
2019-06-26T19:25:00.001Z,17.80
2019-06-26T19:27:26.340Z,17.80
2019-06-26T19:29:52.742Z,17.80
2019-06-26T19:32:19.239Z,17.80
2019-06-26T19:34:45.681Z,17.70
2019-06-26T19:37:12.101Z,17.70
2019-06-26T19:39:38.506Z,17.70
2019-06-26T19:42:04.821Z,17.70
2019-06-26T19:44:31.314Z,17.70
2019-06-26T19:46:57.807Z,17.70
2019-06-26T19:49:24.271Z,17.70
2019-06-26T19:51:50.685Z,17.70
2019-06-26T19:54:26.453Z,17.70
2019-06-26T19:56:45.449Z,17.60
2019-06-26T19:59:11.798Z,17.60
2019-06-26T20:01:38.262Z,17.60
2019-06-26T20:04:04.778Z,17.60
2019-06-26T20:06:31.221Z,17.50
2019-06-26T20:08:57.796Z,17.50
2019-06-26T20:11:24.189Z,17.50
2019-06-26T20:13:50.774Z,17.50
2019-06-26T20:16:17.208Z,17.40
2019-06-26T20:18:43.728Z,17.40
2019-06-26T20:21:10.413Z,17.40
2019-06-26T20:23:36.778Z,17.40
2019-06-26T20:26:03.356Z,17.40
2019-06-26T20:28:29.803Z,17.40
2019-06-26T20:30:56.218Z,17.40
2019-06-26T20:33:22.563Z,17.30
2019-06-26T20:35:49.019Z,17.30
2019-06-26T20:38:15.401Z,17.30
2019-06-26T20:40:45.489Z,17.30
2019-06-26T20:43:10.025Z,17.30
2019-06-26T20:45:36.625Z,17.30
2019-06-26T20:48:03.180Z,17.30
2019-06-26T20:50:29.566Z,17.30
2019-06-26T20:52:55.969Z,17.30
2019-06-26T20:55:22.353Z,17.20
2019-06-26T20:57:48.759Z,17.20
2019-06-26T21:00:15.601Z,17.20
2019-06-26T21:02:41.948Z,17.20
2019-06-26T21:05:10.707Z,17.20
2019-06-26T21:07:37.149Z,17.20
2019-06-26T21:10:03.759Z,17.20
2019-06-26T21:12:30.101Z,17.20
2019-06-26T21:14:56.650Z,17.20
2019-06-26T21:17:25.675Z,17.20
2019-06-26T21:19:51.230Z,17.20
2019-06-26T21:22:17.598Z,17.20
2019-06-26T21:24:44.108Z,17.10
2019-06-26T21:27:10.450Z,17.10
2019-06-26T21:29:36.889Z,17.10
2019-06-26T21:32:03.416Z,17.20
2019-06-26T21:34:29.887Z,17.20
2019-06-26T21:36:56.482Z,17.20
2019-06-26T21:39:23.074Z,17.10
2019-06-26T21:41:49.418Z,17.10
2019-06-26T21:44:15.789Z,17.10
2019-06-26T21:46:42.141Z,17.10
2019-06-26T21:49:08.592Z,17.10
2019-06-26T21:51:35.200Z,17.10
2019-06-26T21:54:01.715Z,17.10
2019-06-26T21:56:28.119Z,17.10
2019-06-26T21:58:54.514Z,17.10
2019-06-26T22:01:20.972Z,17.10
2019-06-26T22:03:47.364Z,17.10
2019-06-26T22:06:13.688Z,17.00
2019-06-26T22:08:40.515Z,17.10
2019-06-26T22:11:07.328Z,17.10
2019-06-26T22:13:52.181Z,17.00
2019-06-26T22:16:18.703Z,17.00
2019-06-26T22:18:45.211Z,17.00
2019-06-26T22:21:11.729Z,17.00
2019-06-26T22:23:38.212Z,17.00
2019-06-26T22:26:04.635Z,16.90
2019-06-26T22:28:31.056Z,16.90
2019-06-26T22:30:57.485Z,16.90
2019-06-26T22:33:23.916Z,16.90
2019-06-26T22:35:50.443Z,16.90
2019-06-26T22:38:16.893Z,16.90
2019-06-26T22:40:43.339Z,16.90
2019-06-26T22:43:09.783Z,16.90
2019-06-26T22:45:36.240Z,16.90
2019-06-26T22:48:02.560Z,16.90
2019-06-26T22:50:29.057Z,16.80
2019-06-26T22:52:55.676Z,16.90
2019-06-26T22:55:22.105Z,16.80
2019-06-26T22:57:48.424Z,16.80
2019-06-26T23:00:15.310Z,16.80
2019-06-26T23:02:41.740Z,16.80
2019-06-26T23:05:08.111Z,16.80
2019-06-26T23:07:34.484Z,16.80
2019-06-26T23:10:00.962Z,16.80
2019-06-26T23:12:27.452Z,16.80
2019-06-26T23:14:53.775Z,16.80
2019-06-26T23:17:20.199Z,16.70
2019-06-26T23:19:46.582Z,16.70
2019-06-26T23:22:13.046Z,16.70
2019-06-26T23:24:39.327Z,16.70
2019-06-26T23:27:05.939Z,16.70
2019-06-26T23:29:32.430Z,16.70
2019-06-26T23:31:58.987Z,16.70
2019-06-26T23:34:25.315Z,16.70
2019-06-26T23:36:51.731Z,16.70
2019-06-26T23:39:18.098Z,16.60
2019-06-26T23:41:44.419Z,16.60
2019-06-26T23:44:13.768Z,16.60
2019-06-26T23:46:40.492Z,16.70
2019-06-26T23:49:06.922Z,16.70
2019-06-26T23:51:33.280Z,16.70
2019-06-26T23:53:59.799Z,16.70
2019-06-26T23:56:39.507Z,16.70
2019-06-26T23:58:54.391Z,16.70
